sensor_id;sensor_type;location;lat;lon;timestamp;pressure;altitude;pressure_sealevel;temperature;humidity
5966;BME280;3009;43.224;27.976;2024-03-02T00:01:16;100357.16;;;7.66;100.00
5966;BME280;3009;43.224;27.976;2024-03-02T00:03:44;100359.31;;;7.63;100.00
5966;BME280;3009;43.224;27.976;2024-03-02T00:06:13;100366.91;;;7.56;100.00
5966;BME280;3009;43.224;27.976;2024-03-02T00:08:42;100361.97;;;7.63;100.00
5966;BME280;3009;43.224;27.976;2024-03-02T00:11:10;100355.00;;;7.68;100.00
5966;BME280;3009;43.224;27.976;2024-03-02T00:13:41;100352.41;;;7.62;100.00
5966;BME280;3009;43.224;27.976;2024-03-02T00:16:11;100351.84;;;7.66;100.00
5966;BME280;3009;43.224;27.976;2024-03-02T00:18:40;100346.56;;;7.60;100.00
5966;BME280;3009;43.224;27.976;2024-03-02T00:21:10;100348.34;;;7.65;100.00
5966;BME280;3009;43.224;27.976;2024-03-02T00:23:40;100353.97;;;7.63;100.00
5966;BME280;3009;43.224;27.976;2024-03-02T00:26:11;100342.81;;;7.61;100.00
5966;BME280;3009;43.224;27.976;2024-03-02T00:28:40;100336.53;;;7.52;100.00
5966;BME280;3009;43.224;27.976;2024-03-02T00:31:12;100335.38;;;7.58;100.00
5966;BME280;3009;43.224;27.976;2024-03-02T00:33:42;100329.31;;;7.53;100.00
5966;BME280;3009;43.224;27.976;2024-03-02T00:36:13;100330.97;;;7.49;100.00
5966;BME280;3009;43.224;27.976;2024-03-02T00:38:47;100328.88;;;7.45;100.00
5966;BME280;3009;43.224;27.976;2024-03-02T00:41:18;100324.13;;;7.42;100.00
5966;BME280;3009;43.224;27.976;2024-03-02T00:43:57;100315.34;;;7.42;100.00
5966;BME280;3009;43.224;27.976;2024-03-02T00:46:30;100310.00;;;7.42;100.00
5966;BME280;3009;43.224;27.976;2024-03-02T00:49:02;100314.56;;;7.41;100.00
5966;BME280;3009;43.224;27.976;2024-03-02T00:51:32;100303.63;;;7.38;100.00
5966;BME280;3009;43.224;27.976;2024-03-02T00:54:02;100301.25;;;7.36;100.00
5966;BME280;3009;43.224;27.976;2024-03-02T00:56:32;100307.91;;;7.39;100.00
5966;BME280;3009;43.224;27.976;2024-03-02T00:59:02;100308.25;;;7.32;100.00
5966;BME280;3009;43.224;27.976;2024-03-02T01:01:31;100314.31;;;7.38;100.00
5966;BME280;3009;43.224;27.976;2024-03-02T01:04:00;100312.78;;;7.32;100.00
5966;BME280;3009;43.224;27.976;2024-03-02T01:06:30;100311.72;;;7.33;100.00
5966;BME280;3009;43.224;27.976;2024-03-02T01:08:59;100309.56;;;7.35;100.00
5966;BME280;3009;43.224;27.976;2024-03-02T01:11:27;100297.31;;;7.34;100.00
5966;BME280;3009;43.224;27.976;2024-03-02T01:13:57;100295.72;;;7.33;100.00
5966;BME280;3009;43.224;27.976;2024-03-02T01:16:25;100300.53;;;7.31;100.00
5966;BME280;3009;43.224;27.976;2024-03-02T01:18:55;100287.19;;;7.31;100.00
5966;BME280;3009;43.224;27.976;2024-03-02T01:21:23;100285.41;;;7.26;100.00
5966;BME280;3009;43.224;27.976;2024-03-02T01:23:52;100277.69;;;7.24;100.00
5966;BME280;3009;43.224;27.976;2024-03-02T01:26:21;100291.31;;;7.23;100.00
5966;BME280;3009;43.224;27.976;2024-03-02T01:28:49;100289.16;;;7.25;100.00
5966;BME280;3009;43.224;27.976;2024-03-02T01:31:18;100277.47;;;7.21;100.00
5966;BME280;3009;43.224;27.976;2024-03-02T01:33:46;100270.84;;;7.18;100.00
5966;BME280;3009;43.224;27.976;2024-03-02T01:36:16;100269.19;;;7.22;100.00
5966;BME280;3009;43.224;27.976;2024-03-02T01:38:44;100275.59;;;7.21;100.00
5966;BME280;3009;43.224;27.976;2024-03-02T01:41:13;100260.97;;;7.19;100.00
5966;BME280;3009;43.224;27.976;2024-03-02T01:43:41;100255.94;;;7.17;100.00
5966;BME280;3009;43.224;27.976;2024-03-02T01:46:10;100266.88;;;7.16;100.00
5966;BME280;3009;43.224;27.976;2024-03-02T01:48:38;100279.13;;;7.17;100.00
5966;BME280;3009;43.224;27.976;2024-03-02T01:51:07;100288.13;;;7.21;100.00
5966;BME280;3009;43.224;27.976;2024-03-02T01:53:37;100285.47;;;7.21;100.00
5966;BME280;3009;43.224;27.976;2024-03-02T01:56:06;100271.94;;;7.17;100.00
5966;BME280;3009;43.224;27.976;2024-03-02T01:58:34;100266.03;;;7.20;100.00
5966;BME280;3009;43.224;27.976;2024-03-02T02:01:03;100246.84;;;7.18;100.00
5966;BME280;3009;43.224;27.976;2024-03-02T02:03:32;100231.94;;;7.17;100.00
5966;BME280;3009;43.224;27.976;2024-03-02T02:06:00;100221.91;;;7.09;100.00
5966;BME280;3009;43.224;27.976;2024-03-02T02:08:29;100221.41;;;7.07;100.00
5966;BME280;3009;43.224;27.976;2024-03-02T02:10:58;100223.78;;;7.08;100.00
5966;BME280;3009;43.224;27.976;2024-03-02T02:13:27;100217.16;;;7.06;100.00
5966;BME280;3009;43.224;27.976;2024-03-02T02:16:04;100217.44;;;7.04;100.00
5966;BME280;3009;43.224;27.976;2024-03-02T02:18:33;100222.47;;;7.06;100.00
5966;BME280;3009;43.224;27.976;2024-03-02T02:21:02;100214.56;;;7.01;100.00
5966;BME280;3009;43.224;27.976;2024-03-02T02:23:32;100231.84;;;7.03;100.00
5966;BME280;3009;43.224;27.976;2024-03-02T02:26:00;100242.88;;;6.97;100.00
5966;BME280;3009;43.224;27.976;2024-03-02T02:28:29;100229.53;;;6.97;100.00
5966;BME280;3009;43.224;27.976;2024-03-02T02:30:58;100224.00;;;6.93;100.00
5966;BME280;3009;43.224;27.976;2024-03-02T02:33:27;100214.63;;;6.96;100.00
5966;BME280;3009;43.224;27.976;2024-03-02T02:35:56;100203.94;;;6.96;100.00
5966;BME280;3009;43.224;27.976;2024-03-02T02:38:24;100205.84;;;6.95;100.00
5966;BME280;3009;43.224;27.976;2024-03-02T02:40:54;100210.59;;;6.98;100.00
5966;BME280;3009;43.224;27.976;2024-03-02T02:43:23;100209.22;;;7.01;100.00
5966;BME280;3009;43.224;27.976;2024-03-02T02:45:51;100207.06;;;7.03;100.00
5966;BME280;3009;43.224;27.976;2024-03-02T02:48:19;100221.75;;;7.00;100.00
5966;BME280;3009;43.224;27.976;2024-03-02T02:50:48;100226.59;;;6.98;100.00
5966;BME280;3009;43.224;27.976;2024-03-02T02:53:16;100234.00;;;7.01;100.00
5966;BME280;3009;43.224;27.976;2024-03-02T02:55:45;100249.50;;;6.99;100.00
5966;BME280;3009;43.224;27.976;2024-03-02T02:58:14;100259.16;;;6.95;100.00
5966;BME280;3009;43.224;27.976;2024-03-02T03:00:43;100259.44;;;6.94;100.00
5966;BME280;3009;43.224;27.976;2024-03-02T03:03:11;100265.25;;;6.96;100.00
5966;BME280;3009;43.224;27.976;2024-03-02T03:05:40;100274.34;;;6.95;100.00
5966;BME280;3009;43.224;27.976;2024-03-02T03:08:08;100280.25;;;6.91;100.00
5966;BME280;3009;43.224;27.976;2024-03-02T03:10:37;100274.69;;;6.88;100.00
5966;BME280;3009;43.224;27.976;2024-03-02T03:13:05;100268.56;;;6.87;100.00
5966;BME280;3009;43.224;27.976;2024-03-02T03:15:36;100268.03;;;6.85;100.00
5966;BME280;3009;43.224;27.976;2024-03-02T03:18:05;100268.56;;;6.87;100.00
5966;BME280;3009;43.224;27.976;2024-03-02T03:20:34;100265.38;;;6.85;100.00
5966;BME280;3009;43.224;27.976;2024-03-02T03:23:03;100263.25;;;6.87;100.00
5966;BME280;3009;43.224;27.976;2024-03-02T03:25:32;100262.16;;;6.88;100.00
5966;BME280;3009;43.224;27.976;2024-03-02T03:28:00;100260.56;;;6.87;100.00
5966;BME280;3009;43.224;27.976;2024-03-02T03:30:30;100252.56;;;6.87;100.00
5966;BME280;3009;43.224;27.976;2024-03-02T03:33:00;100247.25;;;6.87;100.00
5966;BME280;3009;43.224;27.976;2024-03-02T03:35:28;100246.72;;;6.85;100.00
5966;BME280;3009;43.224;27.976;2024-03-02T03:37:57;100250.50;;;6.84;100.00
5966;BME280;3009;43.224;27.976;2024-03-02T03:40:25;100241.19;;;6.82;100.00
5966;BME280;3009;43.224;27.976;2024-03-02T03:42:53;100252.34;;;6.84;100.00
5966;BME280;3009;43.224;27.976;2024-03-02T03:45:23;100243.00;;;6.86;100.00
5966;BME280;3009;43.224;27.976;2024-03-02T03:47:53;100243.28;;;6.85;100.00
5966;BME280;3009;43.224;27.976;2024-03-02T03:50:23;100241.91;;;6.87;100.00
5966;BME280;3009;43.224;27.976;2024-03-02T03:52:52;100243.78;;;6.87;100.00
5966;BME280;3009;43.224;27.976;2024-03-02T03:55:20;100236.59;;;6.87;100.00
5966;BME280;3009;43.224;27.976;2024-03-02T03:57:48;100240.03;;;6.88;100.00
5966;BME280;3009;43.224;27.976;2024-03-02T04:00:17;100240.03;;;6.88;100.00
5966;BME280;3009;43.224;27.976;2024-03-02T04:02:46;100240.31;;;6.86;100.00
5966;BME280;3009;43.224;27.976;2024-03-02T04:05:17;100228.03;;;6.90;100.00
5966;BME280;3009;43.224;27.976;2024-03-02T04:07:47;100240.13;;;6.83;100.00
5966;BME280;3009;43.224;27.976;2024-03-02T04:10:15;100244.06;;;6.85;100.00
5966;BME280;3009;43.224;27.976;2024-03-02T04:12:44;100240.91;;;6.83;100.00
5966;BME280;3009;43.224;27.976;2024-03-02T04:15:13;100230.03;;;6.80;100.00
5966;BME280;3009;43.224;27.976;2024-03-02T04:17:41;100239.44;;;6.72;100.00
5966;BME280;3009;43.224;27.976;2024-03-02T04:20:10;100242.63;;;6.74;100.00
5966;BME280;3009;43.224;27.976;2024-03-02T04:22:39;100257.28;;;6.71;100.00
5966;BME280;3009;43.224;27.976;2024-03-02T04:25:09;100261.56;;;6.72;100.00
5966;BME280;3009;43.224;27.976;2024-03-02T04:27:38;100251.66;;;6.73;100.00
5966;BME280;3009;43.224;27.976;2024-03-02T04:30:07;100253.63;;;6.67;100.00
5966;BME280;3009;43.224;27.976;2024-03-02T04:32:35;100246.41;;;6.68;100.00
5966;BME280;3009;43.224;27.976;2024-03-02T04:35:05;100245.91;;;6.66;100.00
5966;BME280;3009;43.224;27.976;2024-03-02T04:37:35;100248.00;;;6.69;100.00
5966;BME280;3009;43.224;27.976;2024-03-02T04:40:04;100256.28;;;6.67;100.00
5966;BME280;3009;43.224;27.976;2024-03-02T04:42:36;100260.31;;;6.65;100.00
5966;BME280;3009;43.224;27.976;2024-03-02T04:45:06;100265.63;;;6.65;100.00
5966;BME280;3009;43.224;27.976;2024-03-02T04:47:34;100260.78;;;6.72;100.00
5966;BME280;3009;43.224;27.976;2024-03-02T04:50:04;100263.19;;;6.68;100.00
5966;BME280;3009;43.224;27.976;2024-03-02T04:52:34;100259.94;;;6.71;100.00
5966;BME280;3009;43.224;27.976;2024-03-02T04:55:03;100252.25;;;6.70;100.00
5966;BME280;3009;43.224;27.976;2024-03-02T04:57:52;100257.56;;;6.70;100.00
5966;BME280;3009;43.224;27.976;2024-03-02T05:00:21;100253.28;;;6.74;100.00
5966;BME280;3009;43.224;27.976;2024-03-02T05:02:50;100261.25;;;6.74;100.00
5966;BME280;3009;43.224;27.976;2024-03-02T05:05:20;100253.28;;;6.74;100.00
5966;BME280;3009;43.224;27.976;2024-03-02T05:07:48;100255.16;;;6.73;100.00
5966;BME280;3009;43.224;27.976;2024-03-02T05:10:16;100255.38;;;6.77;100.00
5966;BME280;3009;43.224;27.976;2024-03-02T05:12:45;100259.56;;;6.83;100.00
5966;BME280;3009;43.224;27.976;2024-03-02T05:15:25;100245.91;;;6.90;100.00
5966;BME280;3009;43.224;27.976;2024-03-02T05:17:54;100253.38;;;6.88;100.00
5966;BME280;3009;43.224;27.976;2024-03-02T05:20:24;100256.03;;;6.88;100.00
5966;BME280;3009;43.224;27.976;2024-03-02T05:22:52;100256.19;;;6.97;100.00
5966;BME280;3009;43.224;27.976;2024-03-02T05:25:21;100254.59;;;6.96;100.00
5966;BME280;3009;43.224;27.976;2024-03-02T05:27:49;100247.13;;;6.98;100.00
5966;BME280;3009;43.224;27.976;2024-03-02T05:30:18;100253.44;;;7.02;100.00
5966;BME280;3009;43.224;27.976;2024-03-02T05:32:48;100255.81;;;7.03;100.00
5966;BME280;3009;43.224;27.976;2024-03-02T05:35:16;100246.69;;;7.09;100.00
5966;BME280;3009;43.224;27.976;2024-03-02T05:37:45;100243.47;;;7.13;100.00
5966;BME280;3009;43.224;27.976;2024-03-02T05:40:13;100242.66;;;7.12;100.00
5966;BME280;3009;43.224;27.976;2024-03-02T05:42:42;100234.06;;;7.15;100.00
5966;BME280;3009;43.224;27.976;2024-03-02T05:45:11;100226.03;;;7.20;100.00
5966;BME280;3009;43.224;27.976;2024-03-02T05:47:39;100229.69;;;7.24;100.00
5966;BME280;3009;43.224;27.976;2024-03-02T05:50:09;100229.09;;;7.27;100.00
5966;BME280;3009;43.224;27.976;2024-03-02T05:52:38;100229.81;;;7.33;100.00
5966;BME280;3009;43.224;27.976;2024-03-02T05:55:07;100223.28;;;7.44;100.00
5966;BME280;3009;43.224;27.976;2024-03-02T05:57:35;100219.63;;;7.54;100.00
5966;BME280;3009;43.224;27.976;2024-03-02T06:00:17;100219.91;;;7.72;100.00
5966;BME280;3009;43.224;27.976;2024-03-02T06:02:46;100210.56;;;7.88;100.00
5966;BME280;3009;43.224;27.976;2024-03-02T06:05:16;100207.38;;;8.00;100.00
5966;BME280;3009;43.224;27.976;2024-03-02T06:07:46;100214.63;;;8.13;100.00
5966;BME280;3009;43.224;27.976;2024-03-02T06:10:15;100199.31;;;8.33;100.00
5966;BME280;3009;43.224;27.976;2024-03-02T06:12:43;100199.13;;;8.29;100.00
5966;BME280;3009;43.224;27.976;2024-03-02T06:15:12;100195.47;;;8.25;100.00
5966;BME280;3009;43.224;27.976;2024-03-02T06:17:40;100199.59;;;8.18;100.00
5966;BME280;3009;43.224;27.976;2024-03-02T06:20:09;100208.03;;;8.11;100.00
5966;BME280;3009;43.224;27.976;2024-03-02T06:22:39;100208.31;;;8.09;100.00
5966;BME280;3009;43.224;27.976;2024-03-02T06:25:08;100200.09;;;8.06;100.00
5966;BME280;3009;43.224;27.976;2024-03-02T06:27:36;100203.06;;;8.04;100.00
5966;BME280;3009;43.224;27.976;2024-03-02T06:30:05;100203.28;;;8.08;100.00
5966;BME280;3009;43.224;27.976;2024-03-02T06:32:33;100205.66;;;8.23;100.00
5966;BME280;3009;43.224;27.976;2024-03-02T06:35:02;100208.03;;;8.39;100.00
5966;BME280;3009;43.224;27.976;2024-03-02T06:37:31;100203.50;;;8.53;100.00
5966;BME280;3009;43.224;27.976;2024-03-02T06:40:01;100203.50;;;8.53;100.00
5966;BME280;3009;43.224;27.976;2024-03-02T06:42:30;100206.66;;;8.55;100.00
5966;BME280;3009;43.224;27.976;2024-03-02T06:45:01;100201.91;;;8.52;100.00
5966;BME280;3009;43.224;27.976;2024-03-02T06:47:29;100204.28;;;8.67;100.00
5966;BME280;3009;43.224;27.976;2024-03-02T06:49:58;100200.81;;;8.67;100.00
5966;BME280;3009;43.224;27.976;2024-03-02T06:52:26;100187.91;;;8.83;100.00
5966;BME280;3009;43.224;27.976;2024-03-02T06:54:55;100183.69;;;8.68;100.00
5966;BME280;3009;43.224;27.976;2024-03-02T06:57:26;100203.50;;;8.67;100.00
5966;BME280;3009;43.224;27.976;2024-03-02T06:59:54;100190.22;;;8.76;100.00
5966;BME280;3009;43.224;27.976;2024-03-02T07:02:26;100203.88;;;8.74;100.00
5966;BME280;3009;43.224;27.976;2024-03-02T07:04:54;100199.06;;;8.62;100.00
5966;BME280;3009;43.224;27.976;2024-03-02T07:07:23;100212.59;;;8.66;100.00
5966;BME280;3009;43.224;27.976;2024-03-02T07:09:51;100214.38;;;8.71;100.00
5966;BME280;3009;43.224;27.976;2024-03-02T07:12:20;100224.59;;;8.68;100.00
5966;BME280;3009;43.224;27.976;2024-03-02T07:14:50;100221.91;;;8.68;100.00
5966;BME280;3009;43.224;27.976;2024-03-02T07:17:52;100205.28;;;8.72;100.00
5966;BME280;3009;43.224;27.976;2024-03-02T07:20:20;100209.31;;;8.83;100.00
5966;BME280;3009;43.224;27.976;2024-03-02T07:22:48;100211.47;;;8.95;100.00
5966;BME280;3009;43.224;27.976;2024-03-02T07:25:17;100210.84;;;8.98;100.00
5966;BME280;3009;43.224;27.976;2024-03-02T07:27:48;100222.47;;;8.93;100.00
5966;BME280;3009;43.224;27.976;2024-03-02T07:30:18;100208.00;;;8.94;100.00
5966;BME280;3009;43.224;27.976;2024-03-02T07:32:50;100196.81;;;8.92;100.00
5966;BME280;3009;43.224;27.976;2024-03-02T07:35:18;100203.44;;;8.95;100.00
5966;BME280;3009;43.224;27.976;2024-03-02T07:37:48;100194.66;;;8.80;100.00
5966;BME280;3009;43.224;27.976;2024-03-02T07:40:17;100193.38;;;8.78;100.00
5966;BME280;3009;43.224;27.976;2024-03-02T07:42:45;100192.97;;;8.84;100.00
5966;BME280;3009;43.224;27.976;2024-03-02T07:45:14;100191.34;;;8.97;100.00
5966;BME280;3009;43.224;27.976;2024-03-02T07:47:46;100193.56;;;8.95;100.00
5966;BME280;3009;43.224;27.976;2024-03-02T07:50:14;100199.38;;;8.97;100.00
5966;BME280;3009;43.224;27.976;2024-03-02T07:52:42;100196.78;;;9.06;100.00
5966;BME280;3009;43.224;27.976;2024-03-02T07:55:11;100192.91;;;9.12;100.00
5966;BME280;3009;43.224;27.976;2024-03-02T07:57:40;100212.03;;;9.05;100.00
5966;BME280;3009;43.224;27.976;2024-03-02T08:00:09;100207.63;;;8.87;100.00
5966;BME280;3009;43.224;27.976;2024-03-02T08:02:38;100208.09;;;8.89;100.00
5966;BME280;3009;43.224;27.976;2024-03-02T08:05:08;100214.66;;;8.83;100.00
5966;BME280;3009;43.224;27.976;2024-03-02T08:07:36;100208.69;;;8.86;100.00
5966;BME280;3009;43.224;27.976;2024-03-02T08:10:06;100210.16;;;8.92;100.00
5966;BME280;3009;43.224;27.976;2024-03-02T08:12:35;100207.91;;;8.85;100.00
5966;BME280;3009;43.224;27.976;2024-03-02T08:15:04;100206.72;;;8.92;100.00
5966;BME280;3009;43.224;27.976;2024-03-02T08:17:33;100213.66;;;8.93;100.00
5966;BME280;3009;43.224;27.976;2024-03-02T08:20:05;100213.94;;;8.91;100.00
5966;BME280;3009;43.224;27.976;2024-03-02T08:22:36;100222.97;;;8.95;100.00
5966;BME280;3009;43.224;27.976;2024-03-02T08:25:05;100208.88;;;9.03;100.00
5966;BME280;3009;43.224;27.976;2024-03-02T08:27:33;100202.00;;;9.11;100.00
5966;BME280;3009;43.224;27.976;2024-03-02T08:30:03;100202.38;;;9.18;100.00
5966;BME280;3009;43.224;27.976;2024-03-02T08:32:34;100214.31;;;9.12;100.00
5966;BME280;3009;43.224;27.976;2024-03-02T08:35:03;100196.56;;;9.16;100.00
5966;BME280;3009;43.224;27.976;2024-03-02T08:37:31;100220.09;;;9.28;100.00
5966;BME280;3009;43.224;27.976;2024-03-02T08:40:01;100204.16;;;9.23;100.00
5966;BME280;3009;43.224;27.976;2024-03-02T08:42:31;100212.66;;;9.25;100.00
5966;BME280;3009;43.224;27.976;2024-03-02T08:45:00;100203.69;;;9.44;100.00
5966;BME280;3009;43.224;27.976;2024-03-02T08:47:29;100200.13;;;9.57;100.00
5966;BME280;3009;43.224;27.976;2024-03-02T08:49:57;100200.47;;;9.87;100.00
5966;BME280;3009;43.224;27.976;2024-03-02T08:52:28;100210.56;;;10.21;100.00
5966;BME280;3009;43.224;27.976;2024-03-02T08:54:56;100208.78;;;10.39;100.00
5966;BME280;3009;43.224;27.976;2024-03-02T08:57:26;100216.69;;;10.53;100.00
5966;BME280;3009;43.224;27.976;2024-03-02T08:59:55;100221.75;;;10.55;100.00
5966;BME280;3009;43.224;27.976;2024-03-02T09:02:23;100223.50;;;10.59;100.00
5966;BME280;3009;43.224;27.976;2024-03-02T09:04:52;100221.31;;;10.61;100.00
5966;BME280;3009;43.224;27.976;2024-03-02T09:07:20;100228.81;;;10.51;100.00
5966;BME280;3009;43.224;27.976;2024-03-02T09:09:49;100216.66;;;10.44;100.00
5966;BME280;3009;43.224;27.976;2024-03-02T09:12:17;100219.84;;;10.46;100.00
5966;BME280;3009;43.224;27.976;2024-03-02T09:14:47;100212.50;;;10.96;100.00
5966;BME280;3009;43.224;27.976;2024-03-02T09:17:16;100207.75;;;10.75;100.00
5966;BME280;3009;43.224;27.976;2024-03-02T09:19:44;100209.94;;;10.73;100.00
5966;BME280;3009;43.224;27.976;2024-03-02T09:22:13;100202.91;;;11.04;100.00
5966;BME280;3009;43.224;27.976;2024-03-02T09:24:42;100200.97;;;10.69;100.00
5966;BME280;3009;43.224;27.976;2024-03-02T09:27:11;100200.66;;;10.88;100.00
5966;BME280;3009;43.224;27.976;2024-03-02T09:29:39;100204.47;;;10.87;100.00
5966;BME280;3009;43.224;27.976;2024-03-02T09:32:12;100207.13;;;10.78;100.00
5966;BME280;3009;43.224;27.976;2024-03-02T09:34:41;100217.25;;;10.81;100.00
5966;BME280;3009;43.224;27.976;2024-03-02T09:37:10;100205.41;;;10.91;100.00
5966;BME280;3009;43.224;27.976;2024-03-02T09:39:39;100207.44;;;10.68;100.00
5966;BME280;3009;43.224;27.976;2024-03-02T09:42:08;100210.25;;;10.54;100.00
5966;BME280;3009;43.224;27.976;2024-03-02T09:44:37;100197.66;;;10.72;100.00
5966;BME280;3009;43.224;27.976;2024-03-02T09:47:07;100203.25;;;10.44;100.00
5966;BME280;3009;43.224;27.976;2024-03-02T09:49:37;100209.69;;;10.35;100.00
5966;BME280;3009;43.224;27.976;2024-03-02T09:52:07;100206.25;;;10.43;100.00
5966;BME280;3009;43.224;27.976;2024-03-02T09:54:36;100197.31;;;10.56;100.00
5966;BME280;3009;43.224;27.976;2024-03-02T09:57:05;100201.41;;;10.54;100.00
5966;BME280;3009;43.224;27.976;2024-03-02T09:59:33;100204.84;;;10.45;100.00
5966;BME280;3009;43.224;27.976;2024-03-02T10:02:03;100196.06;;;10.54;100.00
5966;BME280;3009;43.224;27.976;2024-03-02T10:04:34;100192.00;;;10.82;100.00
5966;BME280;3009;43.224;27.976;2024-03-02T10:07:11;100194.28;;;10.49;100.00
5966;BME280;3009;43.224;27.976;2024-03-02T10:09:41;100205.16;;;10.44;100.00
5966;BME280;3009;43.224;27.976;2024-03-02T10:12:11;100195.91;;;10.76;100.00
5966;BME280;3009;43.224;27.976;2024-03-02T10:14:40;100200.19;;;10.77;100.00
5966;BME280;3009;43.224;27.976;2024-03-02T10:17:10;100208.38;;;10.63;100.00
5966;BME280;3009;43.224;27.976;2024-03-02T10:19:39;100201.81;;;10.38;100.00
5966;BME280;3009;43.224;27.976;2024-03-02T10:22:10;100200.44;;;10.50;100.00
5966;BME280;3009;43.224;27.976;2024-03-02T10:24:38;100196.88;;;10.80;100.00
5966;BME280;3009;43.224;27.976;2024-03-02T10:27:08;100193.16;;;10.41;100.00
5966;BME280;3009;43.224;27.976;2024-03-02T10:29:38;100188.34;;;10.29;100.00
5966;BME280;3009;43.224;27.976;2024-03-02T10:32:11;100185.53;;;10.26;100.00
5966;BME280;3009;43.224;27.976;2024-03-02T10:34:40;100184.03;;;10.42;100.00
5966;BME280;3009;43.224;27.976;2024-03-02T10:37:11;100178.81;;;10.37;100.00
5966;BME280;3009;43.224;27.976;2024-03-02T10:39:40;100173.44;;;9.97;100.00
5966;BME280;3009;43.224;27.976;2024-03-02T10:42:09;100173.31;;;10.11;100.00
5966;BME280;3009;43.224;27.976;2024-03-02T10:44:38;100162.44;;;10.07;100.00
5966;BME280;3009;43.224;27.976;2024-03-02T10:47:08;100165.88;;;9.99;100.00
5966;BME280;3009;43.224;27.976;2024-03-02T10:49:41;100164.63;;;10.05;100.00
5966;BME280;3009;43.224;27.976;2024-03-02T10:52:13;100155.91;;;9.91;100.00
5966;BME280;3009;43.224;27.976;2024-03-02T10:54:41;100155.81;;;9.73;100.00
5966;BME280;3009;43.224;27.976;2024-03-02T10:57:11;100145.25;;;9.68;100.00
5966;BME280;3009;43.224;27.976;2024-03-02T10:59:49;100145.88;;;9.65;100.00
5966;BME280;3009;43.224;27.976;2024-03-02T11:02:21;100150.31;;;9.70;100.00
5966;BME280;3009;43.224;27.976;2024-03-02T11:04:53;100149.69;;;9.73;100.00
5966;BME280;3009;43.224;27.976;2024-03-02T11:07:27;100152.31;;;9.96;100.00
5966;BME280;3009;43.224;27.976;2024-03-02T11:10:00;100156.38;;;9.93;100.00
5966;BME280;3009;43.224;27.976;2024-03-02T11:12:39;100153.75;;;10.02;100.00
5966;BME280;3009;43.224;27.976;2024-03-02T11:15:17;100155.22;;;10.17;100.00
5966;BME280;3009;43.224;27.976;2024-03-02T11:17:47;100157.81;;;9.90;100.00
5966;BME280;3009;43.224;27.976;2024-03-02T11:20:16;100149.75;;;9.82;100.00
5966;BME280;3009;43.224;27.976;2024-03-02T11:22:47;100152.97;;;9.70;100.00
5966;BME280;3009;43.224;27.976;2024-03-02T11:25:26;100155.09;;;9.82;100.00
5966;BME280;3009;43.224;27.976;2024-03-02T11:28:03;100156.47;;;9.48;100.00
5966;BME280;3009;43.224;27.976;2024-03-02T11:30:50;100148.34;;;9.30;100.00
5966;BME280;3009;43.224;27.976;2024-03-02T11:33:26;100140.91;;;9.50;100.00
5966;BME280;3009;43.224;27.976;2024-03-02T11:35:58;100136.78;;;9.44;100.00
5966;BME280;3009;43.224;27.976;2024-03-02T11:38:32;100145.91;;;9.43;100.00
5966;BME280;3009;43.224;27.976;2024-03-02T11:41:02;100139.03;;;9.50;100.00
5966;BME280;3009;43.224;27.976;2024-03-02T11:43:30;100139.94;;;9.46;100.00
5966;BME280;3009;43.224;27.976;2024-03-02T11:46:01;100143.31;;;9.60;100.00
5966;BME280;3009;43.224;27.976;2024-03-02T11:48:35;100135.22;;;9.74;100.00
5966;BME280;3009;43.224;27.976;2024-03-02T11:51:05;100139.44;;;9.66;100.00
5966;BME280;3009;43.224;27.976;2024-03-02T11:53:35;100146.91;;;9.55;100.00
5966;BME280;3009;43.224;27.976;2024-03-02T11:56:07;100137.19;;;9.60;100.00
5966;BME280;3009;43.224;27.976;2024-03-02T11:58:39;100130.50;;;9.80;100.00
5966;BME280;3009;43.224;27.976;2024-03-02T12:01:10;100133.19;;;10.20;100.00
5966;BME280;3009;43.224;27.976;2024-03-02T12:03:40;100126.88;;;9.84;100.00
5966;BME280;3009;43.224;27.976;2024-03-02T12:06:09;100127.81;;;9.80;100.00
5966;BME280;3009;43.224;27.976;2024-03-02T12:08:39;100140.00;;;9.86;100.00
5966;BME280;3009;43.224;27.976;2024-03-02T12:11:13;100119.16;;;9.74;100.00
5966;BME280;3009;43.224;27.976;2024-03-02T12:13:51;100127.94;;;10.06;100.00
5966;BME280;3009;43.224;27.976;2024-03-02T12:16:24;100122.09;;;10.04;100.00
5966;BME280;3009;43.224;27.976;2024-03-02T12:18:52;100122.75;;;10.09;100.00
5966;BME280;3009;43.224;27.976;2024-03-02T12:21:22;100120.97;;;9.96;100.00
5966;BME280;3009;43.224;27.976;2024-03-02T12:23:52;100118.69;;;9.81;100.00
5966;BME280;3009;43.224;27.976;2024-03-02T12:26:20;100123.69;;;9.65;100.00
5966;BME280;3009;43.224;27.976;2024-03-02T12:28:50;100120.34;;;9.59;100.00
5966;BME280;3009;43.224;27.976;2024-03-02T12:31:18;100126.34;;;9.65;100.00
5966;BME280;3009;43.224;27.976;2024-03-02T12:33:48;100118.38;;;9.42;100.00
5966;BME280;3009;43.224;27.976;2024-03-02T12:36:17;100126.13;;;9.30;100.00
5966;BME280;3009;43.224;27.976;2024-03-02T12:38:46;100132.41;;;9.25;100.00
5966;BME280;3009;43.224;27.976;2024-03-02T12:41:16;100135.50;;;9.41;100.00
5966;BME280;3009;43.224;27.976;2024-03-02T12:43:44;100130.38;;;9.53;100.00
5966;BME280;3009;43.224;27.976;2024-03-02T12:46:13;100135.38;;;9.23;100.00
5966;BME280;3009;43.224;27.976;2024-03-02T12:48:42;100135.06;;;9.25;100.00
5966;BME280;3009;43.224;27.976;2024-03-02T12:51:11;100141.03;;;9.22;100.00
5966;BME280;3009;43.224;27.976;2024-03-02T12:53:40;100134.28;;;9.25;100.00
5966;BME280;3009;43.224;27.976;2024-03-02T12:56:08;100135.81;;;9.17;100.00
5966;BME280;3009;43.224;27.976;2024-03-02T12:58:45;100134.06;;;9.12;100.00
5966;BME280;3009;43.224;27.976;2024-03-02T13:01:15;100134.34;;;9.33;100.00
5966;BME280;3009;43.224;27.976;2024-03-02T13:03:48;100135.41;;;9.55;100.00
5966;BME280;3009;43.224;27.976;2024-03-02T13:06:17;100136.25;;;9.64;100.00
5966;BME280;3009;43.224;27.976;2024-03-02T13:08:46;100136.91;;;9.70;100.00
5966;BME280;3009;43.224;27.976;2024-03-02T13:11:15;100135.56;;;9.50;100.00